createdAt,value
2022-12-12T00:04:51.785Z,-0.83
2022-12-12T00:09:57.092Z,-0.94
2022-12-12T00:14:59.500Z,-1.16
2022-12-12T00:20:03.577Z,-1.27
2022-12-12T00:25:06.341Z,-1.12
2022-12-12T00:30:09.519Z,-1.07
2022-12-12T00:35:13.644Z,-1.18
2022-12-12T00:40:16.260Z,-1.16
2022-12-12T00:45:18.870Z,-1.25
2022-12-12T00:50:22.707Z,-1.10
2022-12-12T00:55:25.500Z,-1.52
2022-12-12T01:00:27.945Z,-1.54
2022-12-12T01:05:31.755Z,-1.15
2022-12-12T01:10:34.456Z,-1.24
2022-12-12T01:15:37.173Z,-1.97
2022-12-12T01:20:43.964Z,-1.44
2022-12-12T01:25:46.412Z,-1.59
2022-12-12T01:30:49.051Z,-1.51
2022-12-12T01:35:53.390Z,-2.03
2022-12-12T01:40:55.984Z,-1.92
2022-12-12T01:46:25.876Z,-2.04
2022-12-12T01:51:30.657Z,-1.79
2022-12-12T01:56:33.651Z,-1.72
2022-12-12T02:01:36.437Z,-2.09
2022-12-12T02:06:40.464Z,-1.75
2022-12-12T02:11:44.548Z,-1.47
2022-12-12T02:16:55.289Z,-1.90
2022-12-12T02:22:01.982Z,-2.41
2022-12-12T02:27:17.172Z,-2.02
2022-12-12T02:32:26.336Z,-1.72
2022-12-12T02:37:32.515Z,-2.16
2022-12-12T02:42:40.945Z,-1.71
2022-12-12T02:47:48.080Z,-1.20
2022-12-12T02:52:50.548Z,-1.31
2022-12-12T02:57:53.575Z,-1.42
2022-12-12T03:03:22.790Z,-1.78
2022-12-12T03:08:38.694Z,-1.72
2022-12-12T03:13:44.522Z,-2.54
2022-12-12T03:18:56.880Z,-2.76
2022-12-12T03:24:03.834Z,-3.23
2022-12-12T03:29:09.403Z,-3.32
2022-12-12T03:34:15.875Z,-3.10
2022-12-12T03:39:20.701Z,-2.85
2022-12-12T03:44:26.497Z,-3.39
2022-12-12T03:49:32.598Z,-2.87
2022-12-12T03:54:37.991Z,-2.54
2022-12-12T03:59:43.170Z,-2.62
2022-12-12T04:04:52.438Z,-2.67
2022-12-12T04:10:15.626Z,-2.88
2022-12-12T04:15:28.865Z,-2.79
2022-12-12T04:20:58.466Z,-2.78
2022-12-12T04:26:21.616Z,-2.50
2022-12-12T04:31:26.392Z,-2.49
2022-12-12T04:36:32.498Z,-2.75
2022-12-12T04:41:36.176Z,-2.25
2022-12-12T04:46:39.350Z,-2.41
2022-12-12T04:51:45.491Z,-2.12
2022-12-12T04:56:51.579Z,-2.22
2022-12-12T05:01:56.410Z,-1.87
2022-12-12T05:07:03.718Z,-1.89
2022-12-12T05:12:06.465Z,-2.35
2022-12-12T05:17:11.764Z,-2.62
2022-12-12T05:22:15.537Z,-2.98
2022-12-12T05:27:18.151Z,-3.38
2022-12-12T05:32:20.730Z,-3.24
2022-12-12T05:37:24.744Z,-3.31
2022-12-12T05:42:27.170Z,-3.30
2022-12-12T05:47:29.637Z,-2.88
2022-12-12T05:52:33.612Z,-2.80
2022-12-12T05:57:36.074Z,-3.16
2022-12-12T06:02:39.174Z,-3.09
2022-12-12T06:07:43.068Z,-3.19
2022-12-12T06:12:45.574Z,-3.25
2022-12-12T06:17:48.215Z,-3.35
2022-12-12T06:22:53.840Z,-3.12
2022-12-12T06:27:57.947Z,-2.99
2022-12-12T06:33:01.622Z,-2.90
2022-12-12T06:38:05.480Z,-2.56
2022-12-12T06:43:07.959Z,-2.30
2022-12-12T06:48:10.458Z,-2.61
2022-12-12T06:53:14.472Z,-2.51
2022-12-12T06:58:16.910Z,-2.58
2022-12-12T07:03:21.400Z,-2.56
2022-12-12T07:08:26.643Z,-2.17
2022-12-12T07:13:29.113Z,-2.36
2022-12-12T07:18:31.803Z,-2.03
2022-12-12T07:23:36.266Z,-2.14
2022-12-12T07:28:39.225Z,-1.88
2022-12-12T07:33:44.357Z,-1.28
2022-12-12T07:38:48.891Z,-2.02
2022-12-12T07:43:52.282Z,-1.68
2022-12-12T07:48:54.873Z,-1.79
2022-12-12T07:53:58.679Z,-1.65
2022-12-12T07:59:01.185Z,-1.48
2022-12-12T08:04:06.899Z,-1.50
2022-12-12T08:09:10.726Z,-1.51
2022-12-12T08:14:13.548Z,-1.62
2022-12-12T08:19:16.054Z,-1.40
2022-12-12T08:24:19.813Z,-0.75
2022-12-12T08:29:22.740Z,-0.63
2022-12-12T08:34:25.285Z,-0.33
2022-12-12T08:39:29.191Z,-0.42
2022-12-12T08:44:34.503Z,-1.10
2022-12-12T08:49:37.154Z,-0.59
2022-12-12T08:54:41.021Z,-0.52
2022-12-12T08:59:43.493Z,-0.67
2022-12-12T09:04:45.930Z,-0.90
2022-12-12T09:09:49.925Z,-0.37
2022-12-12T09:14:52.366Z,-0.24
2022-12-12T09:19:54.788Z,-0.19
2022-12-12T09:24:58.575Z,-0.08
2022-12-12T09:30:01.022Z,-0.19
2022-12-12T09:35:03.465Z,-0.29
2022-12-12T09:40:09.242Z,-0.56
2022-12-12T09:45:12.171Z,-0.77
2022-12-12T09:50:17.919Z,-0.36
2022-12-12T09:55:28.291Z,-0.27
2022-12-12T10:00:32.655Z,0.11
2022-12-12T10:05:38.058Z,0.60
2022-12-12T10:10:43.477Z,0.75
2022-12-12T10:15:47.510Z,0.93
2022-12-12T10:20:52.121Z,1.02
2022-12-12T10:25:57.722Z,0.94
2022-12-12T10:31:04.328Z,0.86
2022-12-12T10:36:09.886Z,0.66
2022-12-12T10:41:18.364Z,0.65
2022-12-12T10:46:28.526Z,0.19
2022-12-12T10:51:31.934Z,0.49
2022-12-12T10:56:35.742Z,1.04
2022-12-12T11:07:02.469Z,0.48
2022-12-12T11:12:15.359Z,0.68
2022-12-12T11:17:21.100Z,0.87
2022-12-12T11:22:27.423Z,0.26
2022-12-12T11:27:32.534Z,1.08
2022-12-12T11:32:39.525Z,1.38
2022-12-12T11:37:50.527Z,1.58
2022-12-12T11:43:06.631Z,1.46
2022-12-12T11:48:30.769Z,2.60
2022-12-12T11:53:33.761Z,4.37
2022-12-12T11:58:40.446Z,4.14
2022-12-12T12:03:54.012Z,5.58
2022-12-12T12:09:06.302Z,5.36
2022-12-12T12:14:17.680Z,4.11
2022-12-12T12:19:23.271Z,3.29
2022-12-12T12:24:40.753Z,2.80
2022-12-12T12:30:02.008Z,3.78
2022-12-12T12:35:13.036Z,3.61
2022-12-12T12:40:22.528Z,3.19
2022-12-12T12:45:32.239Z,3.60
2022-12-12T12:50:39.332Z,3.57
2022-12-12T12:55:48.400Z,2.08
2022-12-12T13:00:54.634Z,2.47
2022-12-12T13:06:02.355Z,2.65
2022-12-12T13:11:07.815Z,1.88
2022-12-12T13:16:12.637Z,1.65
2022-12-12T13:21:21.494Z,2.95
2022-12-12T13:26:28.854Z,2.37
2022-12-12T13:31:41.522Z,0.42
2022-12-12T13:36:47.328Z,-0.61
2022-12-12T13:41:57.232Z,-0.58
2022-12-12T13:46:59.710Z,-0.90
2022-12-12T13:52:20.796Z,-1.22
2022-12-12T13:57:32.699Z,-2.08
2022-12-12T14:02:36.844Z,-2.11
2022-12-12T14:07:40.201Z,-2.35
2022-12-12T14:12:44.513Z,-1.27
2022-12-12T14:17:53.324Z,-1.48
2022-12-12T14:23:10.489Z,-2.37
2022-12-12T14:28:19.031Z,-2.34
2022-12-12T14:33:34.766Z,-1.86
2022-12-12T14:38:40.325Z,-1.16
2022-12-12T14:43:47.635Z,-1.54
2022-12-12T14:49:14.061Z,-1.78
2022-12-12T14:54:18.457Z,-1.44
2022-12-12T14:59:24.421Z,-2.53
2022-12-12T15:04:29.215Z,-1.75
2022-12-12T15:09:32.388Z,-1.72
2022-12-12T15:14:36.348Z,-1.28
2022-12-12T15:19:41.586Z,-1.94
2022-12-12T15:24:44.712Z,-1.53
2022-12-12T15:29:49.706Z,-1.65
2022-12-12T15:35:00.467Z,-2.08
2022-12-12T15:40:17.549Z,-1.65
2022-12-12T15:45:23.456Z,-1.87
2022-12-12T15:50:28.113Z,-1.77
2022-12-12T15:55:30.878Z,-0.91
2022-12-12T16:00:37.465Z,-0.40
2022-12-12T16:05:40.126Z,-0.62
2022-12-12T16:10:51.586Z,-0.08
2022-12-12T16:15:55.359Z,-0.22
2022-12-12T16:20:58.157Z,0.35
2022-12-12T16:26:00.679Z,-0.34
2022-12-12T16:31:05.288Z,0.02
2022-12-12T16:36:09.142Z,0.16
2022-12-12T16:41:13.616Z,0.46
2022-12-12T16:46:19.131Z,0.53
2022-12-12T16:51:25.667Z,-0.65
2022-12-12T16:56:28.224Z,-0.19
2022-12-12T17:01:37.178Z,0.28
2022-12-12T17:06:42.798Z,0.18
2022-12-12T17:11:46.332Z,0.12
2022-12-12T17:16:50.582Z,0.74
2022-12-12T17:21:53.170Z,-0.87
2022-12-12T17:26:55.752Z,0.26
2022-12-12T17:31:59.561Z,0.56
2022-12-12T17:37:02.524Z,0.17
2022-12-12T17:42:12.932Z,0.02
2022-12-12T17:47:16.984Z,0.47
2022-12-12T17:52:19.635Z,0.18
2022-12-12T17:57:25.463Z,0.10
2022-12-12T18:02:29.468Z,-0.82
2022-12-12T18:07:32.361Z,0.12
2022-12-12T18:12:34.906Z,-0.26
2022-12-12T18:17:40.674Z,-0.64
2022-12-12T18:22:43.143Z,-0.68
2022-12-12T18:27:45.865Z,-0.79
2022-12-12T18:32:49.716Z,-1.14
2022-12-12T18:37:52.193Z,-0.31
2022-12-12T18:42:55.100Z,0.07
2022-12-12T18:47:59.209Z,0.16
2022-12-12T18:53:01.690Z,-0.88
2022-12-12T18:58:04.334Z,0.05
2022-12-12T19:03:08.379Z,0.09
2022-12-12T19:08:10.872Z,-0.85
2022-12-12T19:13:13.366Z,-0.56
2022-12-12T19:18:17.484Z,-1.19
2022-12-12T19:23:20.307Z,-1.09
2022-12-12T19:28:22.821Z,-1.52
2022-12-12T19:33:26.931Z,-3.39
2022-12-12T19:38:29.778Z,-3.78
2022-12-12T19:43:32.555Z,-4.27
2022-12-12T19:48:36.706Z,-3.80
2022-12-12T19:53:39.723Z,-4.01
2022-12-12T19:58:42.549Z,-4.31
2022-12-12T20:03:51.313Z,-4.55
2022-12-12T20:08:55.603Z,-3.78
2022-12-12T20:13:59.842Z,-3.18
2022-12-12T20:19:03.736Z,-2.91
2022-12-12T20:24:06.784Z,-3.49
2022-12-12T20:29:09.862Z,-4.08
2022-12-12T20:34:14.478Z,-4.22
2022-12-12T20:39:22.504Z,-3.81
2022-12-12T20:44:25.698Z,-4.00
2022-12-12T20:49:30.276Z,-4.07
2022-12-12T20:54:33.264Z,-4.24
2022-12-12T20:59:36.101Z,-5.52
2022-12-12T21:04:44.208Z,-4.82
2022-12-12T21:09:47.084Z,-4.35
2022-12-12T21:14:49.742Z,-4.90
2022-12-12T21:19:53.644Z,-4.94
2022-12-12T21:24:56.323Z,-4.97
2022-12-12T21:30:00.989Z,-4.60
2022-12-12T21:35:05.353Z,-4.12
2022-12-12T21:40:09.007Z,-4.59
2022-12-12T21:45:13.439Z,-4.21
2022-12-12T21:50:17.721Z,-3.97
2022-12-12T21:55:20.234Z,-4.24
2022-12-12T22:00:25.825Z,-4.29
2022-12-12T22:05:29.863Z,-4.30
2022-12-12T22:10:32.453Z,-5.19
2022-12-12T22:15:34.993Z,-5.07
2022-12-12T22:20:38.838Z,-4.79
2022-12-12T22:25:41.473Z,-4.66
2022-12-12T22:30:45.075Z,-4.55
2022-12-12T22:35:49.169Z,-4.70
2022-12-12T22:40:54.224Z,-5.90
2022-12-12T22:45:56.849Z,-5.81
2022-12-12T22:51:00.719Z,-5.90
2022-12-12T22:56:03.218Z,-5.97
2022-12-12T23:01:10.118Z,-6.48
2022-12-12T23:06:15.025Z,-6.14
2022-12-12T23:11:17.759Z,-5.80
2022-12-12T23:16:21.349Z,-5.62
2022-12-12T23:21:25.808Z,-5.64
2022-12-12T23:26:30.230Z,-6.12
2022-12-12T23:31:34.158Z,-6.44
2022-12-12T23:36:38.220Z,-6.85
2022-12-12T23:41:41.022Z,-6.27
2022-12-12T23:46:43.850Z,-6.37
2022-12-12T23:51:48.839Z,-6.22
2022-12-12T23:56:52.026Z,-6.23
